createdAt,value
2023-02-11T00:02:18.748Z,42.17
2023-02-11T00:04:46.561Z,33.03
2023-02-11T00:07:14.380Z,34.17
2023-02-11T00:09:42.127Z,32.25
2023-02-11T00:12:09.862Z,26.42
2023-02-11T00:14:37.635Z,38.15
2023-02-11T00:17:05.401Z,29.88
2023-02-11T00:19:34.522Z,31.90
2023-02-11T00:22:02.259Z,35.50
2023-02-11T00:24:30.168Z,28.75
2023-02-11T00:26:57.931Z,30.33
2023-02-11T00:29:26.137Z,28.95
2023-02-11T00:31:54.012Z,27.27
2023-02-11T00:34:21.833Z,28.27
2023-02-11T00:36:51.903Z,29.13
2023-02-11T00:39:19.642Z,26.33
2023-02-11T00:41:47.415Z,28.02
2023-02-11T00:44:15.141Z,29.40
2023-02-11T00:46:42.960Z,22.88
2023-02-11T00:49:10.731Z,25.90
2023-02-11T00:51:38.723Z,22.38
2023-02-11T00:54:07.984Z,27.80
2023-02-11T00:56:35.850Z,26.42
2023-02-11T00:59:03.643Z,28.92
2023-02-11T01:01:31.487Z,27.00
2023-02-11T01:03:59.326Z,24.83
2023-02-11T01:06:27.063Z,29.80
2023-02-11T01:08:54.998Z,27.17
2023-02-11T01:11:24.146Z,21.60
2023-02-11T01:13:52.006Z,27.48
2023-02-11T01:16:21.286Z,25.58
2023-02-11T01:18:49.318Z,30.67
2023-02-11T01:21:17.077Z,22.60
2023-02-11T01:23:44.861Z,31.25
2023-02-11T01:26:12.670Z,29.05
2023-02-11T01:28:41.829Z,33.28
2023-02-11T01:31:09.723Z,31.52
2023-02-11T01:33:37.578Z,30.33
2023-02-11T01:36:06.760Z,25.67
2023-02-11T01:38:35.563Z,36.78
2023-02-11T01:41:05.958Z,17.85
2023-02-11T01:43:37.467Z,24.73
2023-02-11T01:46:21.102Z,24.27
2023-02-11T01:48:53.555Z,41.45
2023-02-11T01:51:28.563Z,24.05
2023-02-11T01:54:15.857Z,20.45
2023-02-11T01:57:04.887Z,28.40
2023-02-11T01:59:37.089Z,28.00
2023-02-11T02:02:09.210Z,37.25
2023-02-11T02:04:43.276Z,30.40
2023-02-11T02:07:15.343Z,28.65
2023-02-11T02:09:46.675Z,26.63
2023-02-11T02:12:14.475Z,25.77
2023-02-11T02:14:43.106Z,29.33
2023-02-11T02:17:32.092Z,36.08
2023-02-11T02:20:44.463Z,28.75
2023-02-11T02:23:37.065Z,23.88
2023-02-11T02:26:38.497Z,27.38
2023-02-11T02:29:44.751Z,29.33
2023-02-11T02:32:42.223Z,21.98
2023-02-11T02:35:18.916Z,27.80
2023-02-11T02:37:52.108Z,30.85
2023-02-11T02:40:23.703Z,29.73
2023-02-11T02:42:52.571Z,27.23
2023-02-11T02:45:20.960Z,33.97
2023-02-11T02:47:50.106Z,42.40
2023-02-11T02:50:25.021Z,27.60
2023-02-11T02:53:03.284Z,30.08
2023-02-11T02:55:51.544Z,34.05
2023-02-11T02:58:41.979Z,29.48
2023-02-11T03:01:18.162Z,31.48
2023-02-11T03:03:55.698Z,29.65
2023-02-11T03:06:32.703Z,35.25
2023-02-11T03:09:10.353Z,30.75
2023-02-11T03:11:39.917Z,27.90
2023-02-11T03:14:11.579Z,27.98
2023-02-11T03:16:43.200Z,33.42
2023-02-11T03:19:16.523Z,30.02
2023-02-11T03:21:46.183Z,29.63
2023-02-11T03:24:19.806Z,27.98
2023-02-11T03:26:51.047Z,30.30
2023-02-11T03:29:31.646Z,38.17
2023-02-11T03:32:05.508Z,27.77
2023-02-11T03:37:10.861Z,26.65
2023-02-11T03:39:43.018Z,19.90
2023-02-11T03:42:13.942Z,28.77
2023-02-11T03:44:46.143Z,37.28
2023-02-11T03:47:19.359Z,31.80
2023-02-11T03:49:50.907Z,33.97
2023-02-11T03:52:21.089Z,31.52
2023-02-11T03:54:52.660Z,36.72
2023-02-11T03:57:20.397Z,46.08
2023-02-11T03:59:53.195Z,33.55
2023-02-11T04:02:21.510Z,32.05
2023-02-11T04:04:50.703Z,28.73
2023-02-11T04:07:18.546Z,41.67
2023-02-11T04:09:46.353Z,30.10
2023-02-11T04:12:14.190Z,32.70
2023-02-11T04:14:41.986Z,44.30
2023-02-11T04:17:09.979Z,39.05
2023-02-11T04:19:38.020Z,53.35
2023-02-11T04:22:07.479Z,34.78
2023-02-11T04:24:35.292Z,42.13
2023-02-11T04:27:03.105Z,32.75
2023-02-11T04:29:30.946Z,29.70
2023-02-11T04:31:59.191Z,44.53
2023-02-11T04:34:27.022Z,29.17
2023-02-11T04:36:54.980Z,25.88
2023-02-11T04:39:24.130Z,39.35
2023-02-11T04:41:51.858Z,34.95
2023-02-11T04:44:19.573Z,32.88
2023-02-11T04:46:47.581Z,36.22
2023-02-11T04:49:15.888Z,36.00
2023-02-11T04:51:46.438Z,37.42
2023-02-11T04:54:15.494Z,45.55
2023-02-11T04:56:45.007Z,36.80
2023-02-11T04:59:13.450Z,29.50
2023-02-11T05:01:41.559Z,41.03
2023-02-11T05:04:09.389Z,39.80
2023-02-11T05:06:39.285Z,40.08
2023-02-11T05:09:07.183Z,55.88
2023-02-11T05:11:36.659Z,43.25
2023-02-11T05:14:06.513Z,36.45
2023-02-11T05:16:34.429Z,48.78
2023-02-11T05:19:02.334Z,42.60
2023-02-11T05:21:30.275Z,34.63
2023-02-11T05:23:58.158Z,37.83
2023-02-11T05:26:28.599Z,45.97
2023-02-11T05:28:56.371Z,41.15
2023-02-11T05:31:25.698Z,40.65
2023-02-11T05:33:53.468Z,47.92
2023-02-11T05:36:21.291Z,51.88
2023-02-11T05:38:49.088Z,41.92
2023-02-11T05:41:16.925Z,41.25
2023-02-11T05:43:44.781Z,48.40
2023-02-11T05:46:12.613Z,43.03
2023-02-11T05:48:41.745Z,33.35
2023-02-11T05:51:10.563Z,42.92
2023-02-11T05:53:38.353Z,32.28
2023-02-11T05:56:06.937Z,44.22
2023-02-11T05:58:34.692Z,40.05
2023-02-11T06:01:02.490Z,42.50
2023-02-11T06:03:30.353Z,43.55
2023-02-11T06:05:59.508Z,44.70
2023-02-11T06:08:27.307Z,44.95
2023-02-11T06:10:55.159Z,48.03
2023-02-11T06:13:23.016Z,38.20
2023-02-11T06:15:57.738Z,48.38
2023-02-11T06:18:25.534Z,36.85
2023-02-11T06:20:53.381Z,46.78
2023-02-11T06:23:22.867Z,57.13
2023-02-11T06:25:51.369Z,47.33
2023-02-11T06:28:19.511Z,47.17
2023-02-11T06:30:47.417Z,42.28
2023-02-11T06:33:15.231Z,47.55
2023-02-11T06:35:43.012Z,46.50
2023-02-11T06:38:10.792Z,47.75
2023-02-11T06:40:41.191Z,46.55
2023-02-11T06:43:08.932Z,45.08
2023-02-11T06:45:36.638Z,48.33
2023-02-11T06:48:04.616Z,45.28
2023-02-11T06:50:32.557Z,43.50
2023-02-11T06:53:00.472Z,52.72
2023-02-11T06:55:28.664Z,41.55
2023-02-11T06:57:57.848Z,52.78
2023-02-11T07:00:26.516Z,45.92
2023-02-11T07:02:54.360Z,47.95
2023-02-11T07:05:22.582Z,54.33
2023-02-11T07:07:50.426Z,48.65
2023-02-11T07:10:18.262Z,57.33
2023-02-11T07:12:46.101Z,41.58
2023-02-11T07:15:15.256Z,50.47
2023-02-11T07:17:43.013Z,44.92
2023-02-11T07:20:12.485Z,57.65
2023-02-11T07:22:40.294Z,52.45
2023-02-11T07:25:08.406Z,63.47
2023-02-11T07:27:36.244Z,57.20
2023-02-11T07:30:07.233Z,56.67
2023-02-11T07:32:36.599Z,61.10
2023-02-11T07:35:05.089Z,53.88
2023-02-11T07:37:34.746Z,47.95
2023-02-11T07:40:02.522Z,47.15
2023-02-11T07:42:30.266Z,51.90
2023-02-11T07:44:58.115Z,56.85
2023-02-11T07:47:25.901Z,65.90
2023-02-11T07:49:56.648Z,73.10
2023-02-11T07:52:24.877Z,62.90
2023-02-11T07:54:52.643Z,58.40
2023-02-11T07:57:20.365Z,48.75
2023-02-11T07:59:48.282Z,59.63
2023-02-11T08:02:16.086Z,58.95
2023-02-11T08:04:43.867Z,53.28
2023-02-11T08:07:15.521Z,63.33
2023-02-11T08:09:43.365Z,72.53
2023-02-11T08:12:11.278Z,55.47
2023-02-11T08:14:39.308Z,58.95
2023-02-11T08:17:07.083Z,55.58
2023-02-11T08:19:35.328Z,52.33
2023-02-11T08:22:03.197Z,62.55
2023-02-11T08:24:32.497Z,67.95
2023-02-11T08:27:00.195Z,63.95
2023-02-11T08:29:28.036Z,67.65
2023-02-11T08:31:55.800Z,70.53
2023-02-11T08:34:23.581Z,68.60
2023-02-11T08:36:51.364Z,61.17
2023-02-11T08:39:21.968Z,54.88
2023-02-11T08:41:53.335Z,65.25
2023-02-11T08:44:22.690Z,68.88
2023-02-11T08:46:51.390Z,63.80
2023-02-11T08:49:19.199Z,60.92
2023-02-11T08:51:47.834Z,68.97
2023-02-11T08:54:16.096Z,60.92
2023-02-11T08:56:44.053Z,78.38
2023-02-11T08:59:15.391Z,63.17
2023-02-11T09:01:44.278Z,71.65
2023-02-11T09:04:12.298Z,63.65
2023-02-11T09:06:40.265Z,71.50
2023-02-11T09:09:11.142Z,65.55
2023-02-11T09:11:39.415Z,68.95
2023-02-11T09:14:07.365Z,60.97
2023-02-11T09:16:37.765Z,68.30
2023-02-11T09:19:06.374Z,65.05
2023-02-11T09:21:34.742Z,64.57
2023-02-11T09:24:02.852Z,62.53
2023-02-11T09:26:32.269Z,65.45
2023-02-11T09:29:00.675Z,62.55
2023-02-11T09:31:31.028Z,62.85
2023-02-11T09:34:02.503Z,59.70
2023-02-11T09:36:33.070Z,60.35
2023-02-11T09:39:03.023Z,66.07
2023-02-11T09:41:57.219Z,56.75
2023-02-11T09:44:28.378Z,62.10
2023-02-11T09:46:58.913Z,61.38
2023-02-11T09:49:36.298Z,56.88
2023-02-11T09:52:09.545Z,68.35
2023-02-11T09:54:43.504Z,60.78
2023-02-11T09:57:26.580Z,50.30
2023-02-11T09:59:55.686Z,51.00
2023-02-11T10:02:28.665Z,48.83
2023-02-11T10:05:25.815Z,49.43
2023-02-11T10:08:02.344Z,49.97
2023-02-11T10:10:43.469Z,47.28
2023-02-11T10:13:35.018Z,42.47
2023-02-11T10:16:11.102Z,53.20
2023-02-11T10:18:55.421Z,52.03
2023-02-11T10:21:34.029Z,62.13
2023-02-11T10:24:05.459Z,45.25
2023-02-11T10:26:37.224Z,43.95
2023-02-11T10:29:16.590Z,57.75
2023-02-11T10:31:47.772Z,51.08
2023-02-11T10:34:16.421Z,52.20
2023-02-11T10:36:46.780Z,50.08
2023-02-11T10:39:17.274Z,47.42
2023-02-11T10:41:47.436Z,47.33
2023-02-11T10:44:25.881Z,53.53
2023-02-11T10:46:54.800Z,51.13
2023-02-11T10:49:37.381Z,56.40
2023-02-11T10:52:21.320Z,50.80
2023-02-11T10:54:57.983Z,45.85
2023-02-11T10:57:29.121Z,45.50
2023-02-11T11:00:00.579Z,44.05
2023-02-11T11:02:34.442Z,46.42
2023-02-11T11:07:35.080Z,47.05
2023-02-11T11:10:06.123Z,39.58
2023-02-11T11:12:47.879Z,39.95
2023-02-11T11:15:19.914Z,47.83
2023-02-11T11:17:47.679Z,33.30
2023-02-11T11:20:20.164Z,40.58
2023-02-11T11:22:51.026Z,44.33
2023-02-11T11:25:27.062Z,37.33
2023-02-11T11:28:00.006Z,51.95
2023-02-11T11:30:32.903Z,38.93
2023-02-11T11:33:01.930Z,39.53
2023-02-11T11:35:33.995Z,45.00
2023-02-11T11:38:06.089Z,33.03
2023-02-11T11:40:35.425Z,41.55
2023-02-11T11:43:07.774Z,38.55
2023-02-11T11:45:35.632Z,39.63
2023-02-11T11:48:10.818Z,39.00
2023-02-11T11:50:43.520Z,37.33
2023-02-11T11:53:19.784Z,32.83
2023-02-11T11:55:52.261Z,34.10
2023-02-11T11:58:23.553Z,40.63
2023-02-11T12:01:00.488Z,31.80
2023-02-11T12:04:09.064Z,31.02
2023-02-11T12:06:46.874Z,33.28
2023-02-11T12:09:27.824Z,30.52
2023-02-11T12:12:18.813Z,29.80
2023-02-11T12:14:55.111Z,29.35
2023-02-11T12:17:35.960Z,27.40
2023-02-11T12:20:20.527Z,26.65
2023-02-11T12:23:00.776Z,27.20
2023-02-11T12:25:36.905Z,31.65
2023-02-11T12:28:14.909Z,28.42
2023-02-11T12:30:55.185Z,26.52
2023-02-11T12:33:39.438Z,28.02
2023-02-11T12:36:14.103Z,19.23
2023-02-11T12:39:01.246Z,20.55
2023-02-11T12:42:11.177Z,16.75
2023-02-11T12:44:53.373Z,15.98
2023-02-11T12:47:33.562Z,19.67
2023-02-11T12:50:13.905Z,20.33
2023-02-11T12:52:59.460Z,17.85
2023-02-11T12:55:31.215Z,16.98
2023-02-11T12:58:02.659Z,15.93
2023-02-11T13:00:41.545Z,14.98
2023-02-11T13:03:18.027Z,19.02
2023-02-11T13:05:50.500Z,15.73
2023-02-11T13:08:22.542Z,12.15
2023-02-11T13:10:55.023Z,18.92
2023-02-11T13:13:28.368Z,18.13
2023-02-11T13:16:01.233Z,18.38
2023-02-11T13:18:40.792Z,19.90
2023-02-11T13:21:33.466Z,13.85
2023-02-11T13:24:09.351Z,18.27
2023-02-11T13:26:43.831Z,11.88
2023-02-11T13:29:24.140Z,11.60
2023-02-11T13:31:56.487Z,13.90
2023-02-11T13:34:26.260Z,18.52
2023-02-11T13:36:58.302Z,17.00
2023-02-11T13:39:26.344Z,15.98
2023-02-11T13:42:04.224Z,15.52
2023-02-11T13:44:35.440Z,13.82
2023-02-11T13:47:06.081Z,15.60
2023-02-11T13:49:40.597Z,19.52
2023-02-11T13:52:23.984Z,13.45
2023-02-11T13:54:53.993Z,16.13
2023-02-11T13:57:40.780Z,14.45
2023-02-11T14:00:48.556Z,15.85
2023-02-11T14:03:49.882Z,11.77
2023-02-11T14:06:53.297Z,16.92
2023-02-11T14:09:42.433Z,15.20
2023-02-11T14:12:33.999Z,15.85
2023-02-11T14:15:18.427Z,15.68
2023-02-11T14:17:47.769Z,14.82
2023-02-11T14:20:35.663Z,12.20
2023-02-11T14:23:05.589Z,10.35
2023-02-11T14:25:33.628Z,15.00
2023-02-11T14:28:07.795Z,13.68
2023-02-11T14:30:59.836Z,12.77
2023-02-11T14:34:08.938Z,8.68
2023-02-11T14:36:51.935Z,10.82
2023-02-11T14:39:29.750Z,12.85
2023-02-11T14:41:57.809Z,12.25
2023-02-11T14:44:28.042Z,9.20
2023-02-11T14:46:56.862Z,9.68
2023-02-11T14:49:28.395Z,11.18
2023-02-11T14:52:05.058Z,14.27
2023-02-11T14:54:34.988Z,11.95
2023-02-11T14:57:13.170Z,13.07
2023-02-11T14:59:41.671Z,10.65
2023-02-11T15:02:22.950Z,10.90
2023-02-11T15:04:51.263Z,11.57
2023-02-11T15:07:20.478Z,12.52
2023-02-11T15:09:50.224Z,11.32
2023-02-11T15:12:23.615Z,11.90
2023-02-11T15:14:55.228Z,11.48
2023-02-11T15:17:26.574Z,12.68
2023-02-11T15:19:57.411Z,13.52
2023-02-11T15:22:29.596Z,11.48
2023-02-11T15:25:04.030Z,10.10
2023-02-11T15:27:40.827Z,13.80
2023-02-11T15:30:25.884Z,12.18
2023-02-11T15:32:58.615Z,10.57
2023-02-11T15:35:28.637Z,11.32
2023-02-11T15:37:59.090Z,9.77
2023-02-11T15:40:29.169Z,15.07
2023-02-11T15:42:59.144Z,11.68
2023-02-11T15:45:30.355Z,11.65
2023-02-11T15:48:03.516Z,10.90
2023-02-11T15:50:35.849Z,17.92
2023-02-11T15:53:23.034Z,8.27
2023-02-11T15:55:53.566Z,14.52
2023-02-11T15:58:22.894Z,9.98
2023-02-11T16:00:59.591Z,10.05
2023-02-11T16:03:32.509Z,11.75
2023-02-11T16:06:22.389Z,18.65
2023-02-11T16:09:06.262Z,14.32
2023-02-11T16:11:36.672Z,14.23
2023-02-11T16:14:22.434Z,16.98
2023-02-11T16:16:52.790Z,18.73
2023-02-11T16:19:25.335Z,16.60
2023-02-11T16:21:54.683Z,19.60
2023-02-11T16:24:28.441Z,22.15
2023-02-11T16:26:58.762Z,18.63
2023-02-11T16:29:28.812Z,18.20
2023-02-11T16:32:09.091Z,14.82
2023-02-11T16:34:37.353Z,14.10
2023-02-11T16:37:06.554Z,12.88
2023-02-11T16:39:35.971Z,12.07
2023-02-11T16:42:06.440Z,11.15
2023-02-11T16:44:35.630Z,8.75
2023-02-11T16:47:05.888Z,12.15
2023-02-11T16:49:37.176Z,16.60
2023-02-11T16:52:09.116Z,14.73
2023-02-11T16:54:38.203Z,14.80
2023-02-11T16:57:10.297Z,10.77
2023-02-11T16:59:38.096Z,13.27
2023-02-11T17:02:05.955Z,12.30
2023-02-11T17:04:34.403Z,12.15
2023-02-11T17:07:02.212Z,14.23
2023-02-11T17:09:31.018Z,13.32
2023-02-11T17:12:00.511Z,13.35
2023-02-11T17:14:28.373Z,11.70
2023-02-11T17:16:58.283Z,15.65
2023-02-11T17:19:26.188Z,14.80
2023-02-11T17:21:54.429Z,23.40
2023-02-11T17:24:23.290Z,15.27
2023-02-11T17:26:51.520Z,16.45
2023-02-11T17:29:22.937Z,17.63
2023-02-11T17:31:51.794Z,13.18
2023-02-11T17:34:20.486Z,17.27
2023-02-11T17:36:48.292Z,21.80
2023-02-11T17:39:16.651Z,20.38
2023-02-11T17:41:44.471Z,20.05
2023-02-11T17:44:14.113Z,20.73
2023-02-11T17:46:43.424Z,23.55
2023-02-11T17:49:11.949Z,51.53
2023-02-11T17:51:40.765Z,18.30
2023-02-11T17:54:09.975Z,18.60
2023-02-11T17:56:38.043Z,14.90
2023-02-11T17:59:08.355Z,10.82
2023-02-11T18:01:37.801Z,10.65
2023-02-11T18:04:07.942Z,15.45
2023-02-11T18:06:36.216Z,19.70
2023-02-11T18:09:04.519Z,19.35
2023-02-11T18:11:34.000Z,22.67
2023-02-11T18:14:02.631Z,13.63
2023-02-11T18:16:30.866Z,15.82
2023-02-11T18:18:59.496Z,15.68
2023-02-11T18:21:28.714Z,17.83
2023-02-11T18:23:57.002Z,13.45
2023-02-11T18:26:28.070Z,15.85
2023-02-11T18:28:57.668Z,13.45
2023-02-11T18:31:26.452Z,14.15
2023-02-11T18:33:54.631Z,15.93
2023-02-11T18:36:22.923Z,14.15
2023-02-11T18:38:53.647Z,17.10
2023-02-11T18:41:21.701Z,17.10
2023-02-11T18:43:49.610Z,58.38
2023-02-11T18:46:18.105Z,42.75
2023-02-11T18:48:46.086Z,40.78
2023-02-11T18:51:18.350Z,55.28
2023-02-11T18:53:46.617Z,27.75
2023-02-11T18:56:17.928Z,27.23
2023-02-11T18:58:45.801Z,26.33
2023-02-11T19:01:15.813Z,20.75
2023-02-11T19:03:44.083Z,16.77
2023-02-11T19:06:16.057Z,16.75
2023-02-11T19:08:48.069Z,14.00
2023-02-11T19:11:18.760Z,15.38
2023-02-11T19:13:47.722Z,15.32
2023-02-11T19:16:17.715Z,15.38
2023-02-11T19:18:45.522Z,13.32
2023-02-11T19:21:14.103Z,21.55
2023-02-11T19:23:41.907Z,12.18
2023-02-11T19:26:09.701Z,17.70
2023-02-11T19:28:39.220Z,13.35
2023-02-11T19:31:08.856Z,16.88
2023-02-11T19:33:36.878Z,16.27
2023-02-11T19:36:11.902Z,16.75
2023-02-11T19:38:39.810Z,27.38
2023-02-11T19:41:07.592Z,15.70
2023-02-11T19:43:35.412Z,16.83
2023-02-11T19:46:05.685Z,12.38
2023-02-11T19:48:33.822Z,13.50
2023-02-11T19:51:10.865Z,13.50
2023-02-11T19:53:40.615Z,15.02
2023-02-11T19:56:08.711Z,16.25
2023-02-11T19:58:37.250Z,15.20
2023-02-11T20:01:08.827Z,17.17
2023-02-11T20:03:37.190Z,14.45
2023-02-11T20:06:10.453Z,15.93
2023-02-11T20:08:38.260Z,16.85
2023-02-11T20:11:07.982Z,16.83
2023-02-11T20:13:35.823Z,14.15
2023-02-11T20:16:12.263Z,15.85
2023-02-11T20:18:40.862Z,21.45
2023-02-11T20:21:09.862Z,18.45
2023-02-11T20:23:40.299Z,21.50
2023-02-11T20:26:09.102Z,18.27
2023-02-11T20:28:37.276Z,19.38
2023-02-11T20:31:06.432Z,22.27
2023-02-11T20:33:35.872Z,19.98
2023-02-11T20:36:06.609Z,18.65
2023-02-11T20:38:34.439Z,20.23
2023-02-11T20:41:06.481Z,22.10
2023-02-11T20:43:36.974Z,20.27
2023-02-11T20:46:06.689Z,23.23
2023-02-11T20:48:36.090Z,23.17
2023-02-11T20:51:05.754Z,70.47
2023-02-11T20:53:36.356Z,111.35
2023-02-11T20:56:04.663Z,48.45
2023-02-11T20:58:32.450Z,22.92
2023-02-11T21:01:08.149Z,15.65
2023-02-11T21:03:37.392Z,20.52
2023-02-11T21:06:05.480Z,24.15
2023-02-11T21:08:33.340Z,22.20
2023-02-11T21:11:01.931Z,22.80
2023-02-11T21:13:30.038Z,19.52
2023-02-11T21:15:58.483Z,20.13
2023-02-11T21:18:26.729Z,25.83
2023-02-11T21:20:57.418Z,28.55
2023-02-11T21:23:25.847Z,31.40
2023-02-11T21:25:54.958Z,25.10
2023-02-11T21:28:26.388Z,47.47
2023-02-11T21:30:56.176Z,25.90
2023-02-11T21:33:24.897Z,19.05
2023-02-11T21:35:57.450Z,20.42
2023-02-11T21:38:26.203Z,17.67
2023-02-11T21:40:54.749Z,20.20
2023-02-11T21:43:23.058Z,19.10
2023-02-11T21:45:52.384Z,21.33
2023-02-11T21:48:20.368Z,20.70
2023-02-11T21:50:48.607Z,21.05
2023-02-11T21:53:17.775Z,18.45
2023-02-11T21:55:45.668Z,17.98
2023-02-11T21:58:14.148Z,18.92
2023-02-11T22:00:42.016Z,16.23
2023-02-11T22:03:09.857Z,22.60
2023-02-11T22:05:41.136Z,20.00
2023-02-11T22:08:08.898Z,20.05
2023-02-11T22:10:38.978Z,18.80
2023-02-11T22:13:06.713Z,16.13
2023-02-11T22:15:34.456Z,33.30
2023-02-11T22:18:02.192Z,25.45
2023-02-11T22:20:29.986Z,18.15
2023-02-11T22:22:57.728Z,22.80
2023-02-11T22:25:25.520Z,17.65
2023-02-11T22:27:54.664Z,19.45
2023-02-11T22:30:22.715Z,18.45
2023-02-11T22:32:50.528Z,21.27
2023-02-11T22:35:18.467Z,14.50
2023-02-11T22:37:46.178Z,21.52
2023-02-11T22:40:14.717Z,20.10
2023-02-11T22:42:42.467Z,18.83
2023-02-11T22:45:11.841Z,23.55
2023-02-11T22:47:39.625Z,20.52
2023-02-11T22:50:08.702Z,24.33
2023-02-11T22:52:37.028Z,26.63
2023-02-11T22:55:05.512Z,23.13
2023-02-11T22:57:33.263Z,19.88
2023-02-11T23:00:01.010Z,31.58
2023-02-11T23:02:30.183Z,28.30
2023-02-11T23:04:59.422Z,26.98
2023-02-11T23:07:27.143Z,25.30
2023-02-11T23:09:54.850Z,22.92
2023-02-11T23:12:22.608Z,20.27
2023-02-11T23:14:51.906Z,18.02
2023-02-11T23:17:19.708Z,20.45
2023-02-11T23:19:48.821Z,22.55
2023-02-11T23:22:16.616Z,22.90
2023-02-11T23:24:44.345Z,21.73
2023-02-11T23:27:12.079Z,17.00
2023-02-11T23:29:39.790Z,23.75
2023-02-11T23:32:07.822Z,21.98
2023-02-11T23:34:35.608Z,22.23
2023-02-11T23:37:04.701Z,22.52
2023-02-11T23:39:32.481Z,26.75
2023-02-11T23:42:00.203Z,25.70
2023-02-11T23:44:28.100Z,22.85
2023-02-11T23:46:55.922Z,18.15
2023-02-11T23:49:23.810Z,19.90
2023-02-11T23:51:51.597Z,21.13
2023-02-11T23:54:20.714Z,18.83
2023-02-11T23:56:48.421Z,18.13
2023-02-11T23:59:17.037Z,23.67
